Grandeur Of The Seas — C6SE3 — position and weather

sailwx.info

Track history (hours):
 
Tides and Currents Weather Stations Pressure Air Temp Water Temp Dewpoint Dewpoint Depression Visibility Wind Speed Wind Dir Waves Ship Positions

Grandeur Of The Seas

Operator: Royal Caribbean Cruises Ltd

Last reported at 2014-Sep-14 06:00 UTC. Time now 2014-Sep-15 09:33 UTC.
Position N 33°48' W 068°00'.

Type: Passenger vessel. MMSI: 311315000.

Wind from 300 at 6 knots

Barometer 1021.0 mb
Air temperature 26.0 ° C
Visibility: greater than 27.0 NM
Dewpoint 23.2 ° C
Water temperature 29.0 ° C

Date/timePositionNaut miles runAvg speedWind from/ knotsBaromVisibWave heightAir tempDewpointWater temp
2014-Sep-14 06:00N 33°48' W 068°00'5016.6 300 / 61021.027.0 26.023.229.0
2014-Sep-14 03:00N 34°18' W 068°48'33518.6 230 / 101020.0 0.526.524.429.0
2014-Sep-13 09:00N 36°30' W 075°06'5214.9 040 / 151018.010.8 1.523.020.826.0
2014-Sep-13 05:30N 36°59' W 075°60'1616.4
2014-Sep-13 04:33N 37°13' W 076°09'9518.1
2014-Sep-12 23:18N 38°47' W 076°25'1418.6
2014-Sep-12 22:33N 39°00' W 076°23'1312.7
2014-Sep-12 21:33N 39°12' W 076°30'6 6.3
2014-Sep-12 20:33N 39°16' W 076°36'0 0.0
2014-Sep-12 19:33N 39°16' W 076°36'0 0.0
2014-Sep-12 18:33N 39°16' W 076°36'0 0.0
2014-Sep-12 17:33N 39°16' W 076°36'0 0.0
2014-Sep-12 16:33N 39°16' W 076°36'0 0.0
2014-Sep-12 15:33N 39°16' W 076°36'0 0.0
2014-Sep-12 14:33N 39°16' W 076°36'0 0.0
2014-Sep-12 13:33N 39°16' W 076°36'0 0.0
2014-Sep-12 12:33N 39°16' W 076°36'0 0.0
2014-Sep-12 11:33N 39°16' W 076°36'0 0.2
2014-Sep-12 10:33N 39°16' W 076°36'7 6.7
2014-Sep-12 09:33N 39°12' W 076°29'1212.0
2014-Sep-12 08:33N 39°01' W 076°23'11015.7
2014-Sep-12 01:33N 37°11' W 076°09'1714.8
2014-Sep-12 00:24N 36°57' W 075°58'16314.6
2014-Sep-11 13:13N 38°18' W 073°00'1015.1
2014-Sep-11 12:32N 38°24' W 072°49'1514.9
2014-Sep-11 11:32N 38°32' W 072°33'1515.0
2014-Sep-11 10:34N 38°39' W 072°17'1515.0
2014-Sep-11 09:34N 38°47' W 072°01'1515.0
2014-Sep-11 08:33N 38°55' W 071°44'1515.0
2014-Sep-11 07:33N 39°03' W 071°28'1514.8
2014-Sep-11 06:34N 39°11' W 071°12'1515.3
2014-Sep-11 05:34N 39°19' W 070°55'1515.0
2014-Sep-11 04:34N 39°27' W 070°39'1515.1
2014-Sep-11 03:34N 39°35' W 070°22'1515.3
2014-Sep-11 02:34N 39°44' W 070°05'1515.2
2014-Sep-11 01:33N 39°52' W 069°48'1414.3
2014-Sep-11 00:34N 39°59' W 069°33'1514.5
2014-Sep-10 23:33N 40°07' W 069°17'1514.8
2014-Sep-10 22:34N 40°15' W 069°00'1615.3
2014-Sep-10 21:32N 40°23' W 068°43'1515.4
2014-Sep-10 20:33N 40°33' W 068°28'1715.4
2014-Sep-10 19:27N 40°44' W 068°10'2915.2
2014-Sep-10 17:31N 41°03' W 067°41'26814.9
2014-Sep-09 23:33N 44°18' W 063°32'1413.6
2014-Sep-09 22:33N 44°32' W 063°31'6 6.4
2014-Sep-09 21:33N 44°38' W 063°34'0 0.0
2014-Sep-09 20:32N 44°38' W 063°34'0 0.0
2014-Sep-09 19:32N 44°38' W 063°34'0 0.0
2014-Sep-09 18:32N 44°38' W 063°34'0 0.0
2014-Sep-09 17:32N 44°38' W 063°34'0 0.0
2014-Sep-09 16:32N 44°38' W 063°34'0 0.0
2014-Sep-09 15:32N 44°38' W 063°34'0 0.0
2014-Sep-09 14:23N 44°38' W 063°34'0 0.0
2014-Sep-09 13:26N 44°38' W 063°34'1 0.7
2014-Sep-09 12:33N 44°39' W 063°33'1110.9
2014-Sep-09 11:33N 44°29' W 063°28'10719.3
2014-Sep-09 06:00N 43°12' W 065°12'7114.2 050 / 121030.027.0 1.015.012.520.0
2014-Sep-09 01:00N 43°48' W 066°36'38 2.0 040 / 121030.0 14.010.514.0
2014-Sep-08 06:00N 44°24' W 066°18'5112.6 320 / 151023.027.0 1.014.0 19.4
2014-Sep-08 02:00N 44°06' W 067°24'122 4.8 300 / 181020.0 0.515.013.317.0
2014-Sep-07 00:19N 43°32' W 070°07'9 1.0
2014-Sep-06 15:21N 43°39' W 070°15'3 4.3
2014-Sep-06 14:34N 43°37' W 070°12'4915.2
2014-Sep-06 11:22N 42°52' W 069°46'4217.7
2014-Sep-06 09:00N 42°12' W 069°30'4217.1 220 / 221015.0 5.4 1.521.0 24.0
2014-Sep-06 06:30N 41°32' W 069°12'1617.3
2014-Sep-06 05:33N 41°16' W 069°05'1717.0
2014-Sep-06 04:32N 40°60' W 068°59'1716.9
2014-Sep-06 03:33N 40°43' W 068°57'1917.1
2014-Sep-06 02:26N 40°25' W 069°07'1618.0
2014-Sep-06 01:33N 40°15' W 069°23'1119.5
2014-Sep-06 01:00N 40°06' W 069°30'1022.1 180 / 131021.0 1.024.022.625.0
2014-Sep-06 00:33N 40°05' W 069°42'1818.0
2014-Sep-05 23:32N 39°55' W 070°02'2217.3
2014-Sep-05 22:18N 39°43' W 070°26'1418.0
2014-Sep-05 21:32N 39°36' W 070°41'1818.7
2014-Sep-05 20:34N 39°25' W 071°00'1918.9
2014-Sep-05 19:34N 39°15' W 071°21'1919.0
2014-Sep-05 18:34N 39°05' W 071°41'1918.9
2014-Sep-05 17:34N 38°54' W 072°01'1918.7
2014-Sep-05 16:33N 38°44' W 072°22'1918.9
2014-Sep-05 15:33N 38°33' W 072°42'2018.7
2014-Sep-05 14:29N 38°22' W 073°03'2019.0
2014-Sep-05 13:27N 38°11' W 073°24'2019.1
2014-Sep-05 12:24N 38°00' W 073°45'12317.9
2014-Sep-05 05:33N 36°57' W 075°58'1716.4
2014-Sep-05 04:33N 37°10' W 076°09'9517.8
2014-Sep-04 23:13N 38°44' W 076°26'1319.1
2014-Sep-04 22:34N 38°56' W 076°23'1414.4
2014-Sep-04 21:33N 39°11' W 076°26'9 8.9
2014-Sep-04 20:33N 39°16' W 076°36'0 0.2
2014-Sep-04 19:29N 39°16' W 076°36'0 0.0
2014-Sep-04 18:29N 39°16' W 076°36'0 0.0
2014-Sep-04 17:32N 39°16' W 076°36'0 0.0
2014-Sep-04 16:14N 39°16' W 076°36'0 0.0
2014-Sep-04 15:32N 39°16' W 076°36'0 0.0
2014-Sep-04 14:32N 39°16' W 076°36'0 0.0
2014-Sep-04 13:29N 39°16' W 076°36'0 0.0
2014-Sep-04 12:32N 39°16' W 076°36'0 0.0
2014-Sep-04 11:29N 39°16' W 076°36'1 0.6
2014-Sep-04 10:34N 39°15' W 076°35'9 9.2
2014-Sep-04 09:34N 39°10' W 076°26'1111.4
2014-Sep-04 08:34N 38°59' W 076°23'1615.8
2014-Sep-04 07:34N 38°43' W 076°26'1816.1
2014-Sep-04 06:25N 38°25' W 076°21'  
Track history (hours):
 
Tides and Currents Weather Stations Pressure Air Temp Water Temp Dewpoint Dewpoint Depression Visibility Wind Speed Wind Dir Waves Ship Positions

Grandeur Of The Seas

Operator: Royal Caribbean Cruises Ltd

Last reported at 2014-Sep-14 06:00 UTC. Time now 2014-Sep-15 09:33 UTC.
Position N 33°48' W 068°00'.

Type: Passenger vessel. MMSI: 311315000.

Wind from 300 at 6 knots

Barometer 1021.0 mb
Air temperature 26.0 ° C
Visibility: greater than 27.0 NM
Dewpoint 23.2 ° C
Water temperature 29.0 ° C

Date/timePositionNaut miles runAvg speedWind from/ knotsBaromVisibWave heightAir tempDewpointWater temp
2014-Sep-14 06:00N 33°48' W 068°00'5016.6 300 / 61021.027.0 26.023.229.0
2014-Sep-14 03:00N 34°18' W 068°48'33518.6 230 / 101020.0 0.526.524.429.0
2014-Sep-13 09:00N 36°30' W 075°06'5214.9 040 / 151018.010.8 1.523.020.826.0
2014-Sep-13 05:30N 36°59' W 075°60'1616.4
2014-Sep-13 04:33N 37°13' W 076°09'9518.1
2014-Sep-12 23:18N 38°47' W 076°25'1418.6
2014-Sep-12 22:33N 39°00' W 076°23'1312.7
2014-Sep-12 21:33N 39°12' W 076°30'6 6.3
2014-Sep-12 20:33N 39°16' W 076°36'0 0.0
2014-Sep-12 19:33N 39°16' W 076°36'0 0.0
2014-Sep-12 18:33N 39°16' W 076°36'0 0.0
2014-Sep-12 17:33N 39°16' W 076°36'0 0.0
2014-Sep-12 16:33N 39°16' W 076°36'0 0.0
2014-Sep-12 15:33N 39°16' W 076°36'0 0.0
2014-Sep-12 14:33N 39°16' W 076°36'0 0.0
2014-Sep-12 13:33N 39°16' W 076°36'0 0.0
2014-Sep-12 12:33N 39°16' W 076°36'0 0.0
2014-Sep-12 11:33N 39°16' W 076°36'0 0.2
2014-Sep-12 10:33N 39°16' W 076°36'7 6.7
2014-Sep-12 09:33N 39°12' W 076°29'1212.0
2014-Sep-12 08:33N 39°01' W 076°23'11015.7
2014-Sep-12 01:33N 37°11' W 076°09'1714.8
2014-Sep-12 00:24N 36°57' W 075°58'16314.6
2014-Sep-11 13:13N 38°18' W 073°00'1015.1
2014-Sep-11 12:32N 38°24' W 072°49'1514.9
2014-Sep-11 11:32N 38°32' W 072°33'1515.0
2014-Sep-11 10:34N 38°39' W 072°17'1515.0
2014-Sep-11 09:34N 38°47' W 072°01'1515.0
2014-Sep-11 08:33N 38°55' W 071°44'1515.0
2014-Sep-11 07:33N 39°03' W 071°28'1514.8
2014-Sep-11 06:34N 39°11' W 071°12'1515.3
2014-Sep-11 05:34N 39°19' W 070°55'1515.0
2014-Sep-11 04:34N 39°27' W 070°39'1515.1
2014-Sep-11 03:34N 39°35' W 070°22'1515.3
2014-Sep-11 02:34N 39°44' W 070°05'1515.2
2014-Sep-11 01:33N 39°52' W 069°48'1414.3
2014-Sep-11 00:34N 39°59' W 069°33'1514.5
2014-Sep-10 23:33N 40°07' W 069°17'1514.8
2014-Sep-10 22:34N 40°15' W 069°00'1615.3
2014-Sep-10 21:32N 40°23' W 068°43'1515.4
2014-Sep-10 20:33N 40°33' W 068°28'1715.4
2014-Sep-10 19:27N 40°44' W 068°10'2915.2
2014-Sep-10 17:31N 41°03' W 067°41'26814.9
2014-Sep-09 23:33N 44°18' W 063°32'1413.6
2014-Sep-09 22:33N 44°32' W 063°31'6 6.4
2014-Sep-09 21:33N 44°38' W 063°34'0 0.0
2014-Sep-09 20:32N 44°38' W 063°34'0 0.0
2014-Sep-09 19:32N 44°38' W 063°34'0 0.0
2014-Sep-09 18:32N 44°38' W 063°34'0 0.0
2014-Sep-09 17:32N 44°38' W 063°34'0 0.0
2014-Sep-09 16:32N 44°38' W 063°34'0 0.0
2014-Sep-09 15:32N 44°38' W 063°34'0 0.0
2014-Sep-09 14:23N 44°38' W 063°34'0 0.0
2014-Sep-09 13:26N 44°38' W 063°34'1 0.7
2014-Sep-09 12:33N 44°39' W 063°33'1110.9
2014-Sep-09 11:33N 44°29' W 063°28'10719.3
2014-Sep-09 06:00N 43°12' W 065°12'7114.2 050 / 121030.027.0 1.015.012.520.0
2014-Sep-09 01:00N 43°48' W 066°36'38 2.0 040 / 121030.0 14.010.514.0
2014-Sep-08 06:00N 44°24' W 066°18'5112.6 320 / 151023.027.0 1.014.0 19.4
2014-Sep-08 02:00N 44°06' W 067°24'122 4.8 300 / 181020.0 0.515.013.317.0
2014-Sep-07 00:19N 43°32' W 070°07'9 1.0
2014-Sep-06 15:21N 43°39' W 070°15'3 4.3
2014-Sep-06 14:34N 43°37' W 070°12'4915.2
2014-Sep-06 11:22N 42°52' W 069°46'4217.7
2014-Sep-06 09:00N 42°12' W 069°30'4217.1 220 / 221015.0 5.4 1.521.0 24.0
2014-Sep-06 06:30N 41°32' W 069°12'1617.3
2014-Sep-06 05:33N 41°16' W 069°05'1717.0
2014-Sep-06 04:32N 40°60' W 068°59'1716.9
2014-Sep-06 03:33N 40°43' W 068°57'1917.1
2014-Sep-06 02:26N 40°25' W 069°07'1618.0
2014-Sep-06 01:33N 40°15' W 069°23'1119.5
2014-Sep-06 01:00N 40°06' W 069°30'1022.1 180 / 131021.0 1.024.022.625.0
2014-Sep-06 00:33N 40°05' W 069°42'1818.0
2014-Sep-05 23:32N 39°55' W 070°02'2217.3
2014-Sep-05 22:18N 39°43' W 070°26'1418.0
2014-Sep-05 21:32N 39°36' W 070°41'1818.7
2014-Sep-05 20:34N 39°25' W 071°00'1918.9
2014-Sep-05 19:34N 39°15' W 071°21'1919.0
2014-Sep-05 18:34N 39°05' W 071°41'1918.9
2014-Sep-05 17:34N 38°54' W 072°01'1918.7
2014-Sep-05 16:33N 38°44' W 072°22'1918.9
2014-Sep-05 15:33N 38°33' W 072°42'2018.7
2014-Sep-05 14:29N 38°22' W 073°03'2019.0
2014-Sep-05 13:27N 38°11' W 073°24'2019.1
2014-Sep-05 12:24N 38°00' W 073°45'12317.9
2014-Sep-05 05:33N 36°57' W 075°58'1716.4
2014-Sep-05 04:33N 37°10' W 076°09'9517.8
2014-Sep-04 23:13N 38°44' W 076°26'1319.1
2014-Sep-04 22:34N 38°56' W 076°23'1414.4
2014-Sep-04 21:33N 39°11' W 076°26'9 8.9
2014-Sep-04 20:33N 39°16' W 076°36'0 0.2
2014-Sep-04 19:29N 39°16' W 076°36'0 0.0
2014-Sep-04 18:29N 39°16' W 076°36'0 0.0
2014-Sep-04 17:32N 39°16' W 076°36'0 0.0
2014-Sep-04 16:14N 39°16' W 076°36'0 0.0
2014-Sep-04 15:32N 39°16' W 076°36'0 0.0
2014-Sep-04 14:32N 39°16' W 076°36'0 0.0
2014-Sep-04 13:29N 39°16' W 076°36'0 0.0
2014-Sep-04 12:32N 39°16' W 076°36'0 0.0
2014-Sep-04 11:29N 39°16' W 076°36'1 0.6
2014-Sep-04 10:34N 39°15' W 076°35'9 9.2
2014-Sep-04 09:34N 39°10' W 076°26'1111.4
2014-Sep-04 08:34N 38°59' W 076°23'1615.8
2014-Sep-04 07:34N 38°43' W 076°26'1816.1
2014-Sep-04 06:25N 38°25' W 076°21'  

Dump ship's entire track history